Cusick, WA

1:17 AM PDT on October 25, 2014 (GMT -0700)
RAWS FLOWERY TRAIL WA US | Change Station
CLOSE
Current Station
Personal Weather Station
Location: Usk, WA
Elevation: 2680 ft
Nearby Weather Stations

Elev 2680 ft 48.30 °N, 117.41 °W | Updated 47 minutes ago

Overcast
Overcast
43 °F
Feels Like 43 °F
N
0
Wind Variable Wind from North
Gusts 0.0 mph

Today
High -- | Low -- °F
--% Chance of Precip.
Yesterday
High -- | Low -- °F
Precip. -- in
7:24 AM 5:41 PM
New Moon, 2% visible
Pressure 29.94 in
Visibility 10.0 miles
Clouds Few 5500 ft
Windchill 43 °F
Dew Point 43 °F
Humidity 99%
Rainfall -999.00 in
Snow Depth Not available.
UV 0 out of 12
Pollen 1.20 out of 12
Air Quality Not available.
Flu Activity Not available.
METAR KDEW 250753Z AUTO 02012KT 10SM FEW055 08/05 A2992 RMK AO2 SLP137 T00830050 401220028

More Conditions Fewer Conditions

Pressure 29.94 in
Visibility 10.0 miles
Clouds Few 5500 ft
Windchill 43 °F
Dew Point 43 °F
Humidity 99%
Rainfall -999.00 in
Snow Depth Not available.
UV 0 out of 12
Pollen 1.20 out of 12
Air Quality Not available.
Flu Activity Not available.
METAR KDEW 250753Z AUTO 02012KT 10SM FEW055 08/05 A2992 RMK AO2 SLP137 T00830050 401220028

More Conditions Fewer Conditions

10-Day Weather Forecast

Almanac

Astronomy

Oct. 25, 2014 Rise Set
Actual Time 7:24 AM PDT 5:41 PM PDT
Civil Twilight 6:52 AM PDT 6:13 PM PDT
Nautical Twilight 6:15 AM PDT 6:50 PM PDT
Astronomical Twilight 5:39 AM PDT 7:26 PM PDT
Moon 9:14 AM PDT 7:00 PM PDT
Length of Visible Light 11h 21m
Length of Day
10h 16m
Tomorrow will be 3m 18s shorter.
New Moon, 2% of the Moon is Illuminated
Today
New Moon
Oct 30
First Quarter
Nov 6
Full
Nov 14
Last Quarter
Nov 22
New

Today's Extremes

State Highs State Lows

Community

WunderPhotos

Upload Photos

1,764,791 photos uploaded!

Nearby

Snow Depth

Station Depth Elevation
Bunchgrass Meadow 0 in 5000 ft
Quartz Peak 2 in 4700 ft
Sentinel Butte 0 in 4920 ft
Moses Mountain 0 in 5300 ft
Pope Ridge 1 in 3540 ft

Earthquake Activity

City Distance Mag. Time & Date
No recent earthquake activity has been reported nearby.
Minimum magnitude displayed is 2.5.

Coastal Water Temperatures

Place Temperature
No Stations Reporting

Nearby Weather Stations